createdAt,value
2023-04-11T00:00:57.699Z,1.13
2023-04-11T00:03:25.817Z,1.20
2023-04-11T00:05:53.795Z,1.00
2023-04-11T00:08:22.258Z,1.98
2023-04-11T00:10:51.307Z,1.55
2023-04-11T00:13:20.708Z,1.23
2023-04-11T00:15:48.727Z,1.20
2023-04-11T00:18:16.835Z,1.33
2023-04-11T00:20:44.567Z,1.45
2023-04-11T00:23:13.187Z,1.05
2023-04-11T00:25:41.434Z,0.90
2023-04-11T00:28:10.788Z,1.30
2023-04-11T00:30:39.258Z,1.40
2023-04-11T00:33:07.080Z,1.17
2023-04-11T00:35:37.832Z,0.65
2023-04-11T00:38:05.681Z,0.95
2023-04-11T00:40:33.542Z,1.05
2023-04-11T00:43:01.489Z,1.00
2023-04-11T00:45:31.014Z,0.70
2023-04-11T00:47:59.242Z,0.70
2023-04-11T00:50:27.422Z,1.25
2023-04-11T00:52:57.659Z,1.00
2023-04-11T00:55:25.490Z,1.40
2023-04-11T00:57:55.090Z,1.15
2023-04-11T01:00:23.196Z,1.15
2023-04-11T01:02:52.574Z,1.02
2023-04-11T01:05:20.633Z,0.90
2023-04-11T01:07:51.578Z,1.50
2023-04-11T01:10:20.214Z,1.58
2023-04-11T01:12:48.359Z,1.20
2023-04-11T01:15:16.335Z,1.20
2023-04-11T01:17:45.595Z,1.50
2023-04-11T01:20:15.245Z,1.47
2023-04-11T01:22:43.812Z,1.15
2023-04-11T01:25:15.666Z,1.52
2023-04-11T01:27:44.773Z,1.15
2023-04-11T01:30:13.433Z,1.35
2023-04-11T01:32:41.353Z,0.90
2023-04-11T01:35:10.988Z,0.90
2023-04-11T01:37:39.170Z,1.10
2023-04-11T01:40:09.668Z,1.27
2023-04-11T01:42:39.789Z,1.60
2023-04-11T01:45:09.259Z,1.20
2023-04-11T01:47:37.489Z,1.10
2023-04-11T01:50:06.929Z,1.42
2023-04-11T01:52:34.829Z,0.85
2023-04-11T01:55:03.743Z,1.20
2023-04-11T01:57:31.470Z,1.53
2023-04-11T02:00:00.627Z,1.25
2023-04-11T02:02:28.521Z,0.85
2023-04-11T02:04:56.406Z,1.48
2023-04-11T02:07:24.536Z,1.10
2023-04-11T02:09:52.356Z,1.20
2023-04-11T02:12:20.136Z,1.65
2023-04-11T02:14:49.143Z,1.30
2023-04-11T02:17:18.828Z,1.20
2023-04-11T02:19:46.832Z,1.10
2023-04-11T02:22:16.676Z,0.80
2023-04-11T02:24:44.421Z,1.45
2023-04-11T02:27:12.356Z,0.98
2023-04-11T02:29:40.280Z,1.20
2023-04-11T02:32:08.236Z,1.00
2023-04-11T02:34:37.642Z,1.37
2023-04-11T02:37:05.650Z,1.08
2023-04-11T02:39:35.099Z,1.10
2023-04-11T02:42:02.894Z,0.90
2023-04-11T02:44:30.905Z,1.30
2023-04-11T02:47:00.341Z,1.20
2023-04-11T02:49:28.293Z,1.33
2023-04-11T02:51:58.779Z,0.90
2023-04-11T02:54:26.741Z,1.00
2023-04-11T02:56:56.655Z,1.02
2023-04-11T02:59:24.742Z,1.10
2023-04-11T03:01:58.469Z,1.25
2023-04-11T03:04:26.709Z,1.45
2023-04-11T03:07:03.785Z,0.90
2023-04-11T03:09:32.315Z,1.10
2023-04-11T03:12:01.250Z,1.33
2023-04-11T03:14:29.114Z,1.05
2023-04-11T03:16:56.826Z,1.45
2023-04-11T03:19:25.260Z,1.50
2023-04-11T03:21:53.626Z,0.90
2023-04-11T03:24:23.337Z,0.80
2023-04-11T03:26:52.302Z,0.80
2023-04-11T03:29:20.762Z,1.48
2023-04-11T03:32:14.153Z,0.80
2023-04-11T03:34:41.999Z,1.20
2023-04-11T03:37:11.795Z,1.20
2023-04-11T03:39:41.385Z,0.98
2023-04-11T03:42:09.248Z,1.00
2023-04-11T03:44:37.331Z,0.88
2023-04-11T03:47:05.343Z,1.15
2023-04-11T03:49:39.528Z,1.20
2023-04-11T03:52:09.685Z,0.85
2023-04-11T03:54:38.504Z,0.73
2023-04-11T03:57:11.224Z,1.02
2023-04-11T03:59:39.729Z,1.23
2023-04-11T04:02:10.469Z,0.90
2023-04-11T04:04:47.061Z,1.35
2023-04-11T04:07:33.577Z,0.80
2023-04-11T04:10:10.618Z,1.10
2023-04-11T04:12:41.878Z,0.82
2023-04-11T04:15:15.031Z,1.07
2023-04-11T04:17:46.296Z,0.98
2023-04-11T04:20:19.914Z,1.00
2023-04-11T04:22:53.176Z,1.20
2023-04-11T04:25:28.284Z,0.93
2023-04-11T04:28:01.990Z,1.00
2023-04-11T04:30:38.189Z,0.98
2023-04-11T04:33:12.129Z,0.80
2023-04-11T04:35:43.161Z,1.27
2023-04-11T04:38:17.307Z,1.20
2023-04-11T04:40:54.817Z,1.40
2023-04-11T04:43:27.118Z,1.20
2023-04-11T04:46:13.083Z,0.90
2023-04-11T04:48:51.120Z,1.40
2023-04-11T04:51:19.052Z,1.20
2023-04-11T04:53:47.740Z,0.80
2023-04-11T04:56:16.865Z,1.88
2023-04-11T04:58:50.619Z,0.80
2023-04-11T05:01:20.592Z,1.30
2023-04-11T05:03:58.868Z,1.02
2023-04-11T05:06:39.310Z,1.50
2023-04-11T05:09:07.164Z,1.08
2023-04-11T05:11:35.705Z,1.02
2023-04-11T05:14:05.932Z,1.15
2023-04-11T05:16:34.487Z,1.50
2023-04-11T05:19:02.404Z,1.20
2023-04-11T05:21:31.969Z,0.90
2023-04-11T05:23:59.890Z,0.93
2023-04-11T05:26:27.810Z,1.20
2023-04-11T05:28:55.788Z,1.00
2023-04-11T05:31:29.699Z,1.83
2023-04-11T05:33:58.689Z,1.00
2023-04-11T05:36:28.425Z,1.10
2023-04-11T05:38:56.648Z,1.02
2023-04-11T05:41:25.169Z,1.30
2023-04-11T05:43:53.204Z,1.30
2023-04-11T05:46:21.428Z,1.20
2023-04-11T05:48:51.228Z,1.83
2023-04-11T05:51:19.052Z,1.30
2023-04-11T05:53:46.778Z,1.02
2023-04-11T05:56:14.570Z,1.23
2023-04-11T05:58:44.161Z,1.00
2023-04-11T06:01:14.307Z,1.50
2023-04-11T06:03:42.177Z,1.25
2023-04-11T06:06:11.339Z,2.05
2023-04-11T06:08:39.358Z,0.97
2023-04-11T06:11:07.209Z,1.25
2023-04-11T06:13:34.942Z,0.90
2023-04-11T06:16:02.951Z,0.90
2023-04-11T06:18:30.921Z,1.10
2023-04-11T06:20:58.747Z,1.13
2023-04-11T06:23:27.782Z,0.95
2023-04-11T06:25:55.523Z,1.30
2023-04-11T06:28:23.285Z,1.33
2023-04-11T06:30:51.002Z,1.20
2023-04-11T06:33:18.824Z,1.00
2023-04-11T06:35:46.788Z,1.73
2023-04-11T06:38:14.634Z,0.85
2023-04-11T06:40:43.692Z,1.60
2023-04-11T06:43:11.663Z,1.40
2023-04-11T06:45:39.443Z,1.00
2023-04-11T06:48:07.601Z,1.38
2023-04-11T06:50:38.756Z,1.60
2023-04-11T06:53:06.504Z,1.08
2023-04-11T06:55:34.244Z,1.10
2023-04-11T06:58:03.458Z,1.10
2023-04-11T07:00:31.247Z,0.90
2023-04-11T07:02:59.541Z,1.95
2023-04-11T07:05:27.610Z,1.27
2023-04-11T07:07:55.726Z,1.02
2023-04-11T07:10:24.833Z,1.20
2023-04-11T07:12:52.641Z,1.17
2023-04-11T07:15:23.785Z,1.08
2023-04-11T07:17:52.902Z,1.42
2023-04-11T07:20:21.064Z,1.30
2023-04-11T07:22:48.905Z,1.27
2023-04-11T07:25:16.718Z,1.27
2023-04-11T07:27:46.443Z,1.05
2023-04-11T07:30:15.418Z,1.13
2023-04-11T07:32:44.652Z,1.38
2023-04-11T07:35:12.664Z,1.53
2023-04-11T07:37:42.374Z,1.42
2023-04-11T07:40:11.953Z,2.00
2023-04-11T07:42:39.720Z,1.23
2023-04-11T07:45:09.020Z,1.55
2023-04-11T07:47:36.782Z,1.13
2023-04-11T07:50:06.826Z,1.40
2023-04-11T07:52:34.724Z,1.23
2023-04-11T07:55:02.985Z,1.02
2023-04-11T07:57:30.964Z,1.67
2023-04-11T08:00:00.370Z,1.70
2023-04-11T08:02:28.430Z,1.00
2023-04-11T08:04:57.127Z,1.05
2023-04-11T08:07:26.468Z,2.08
2023-04-11T08:09:54.155Z,1.27
2023-04-11T08:12:21.816Z,1.53
2023-04-11T08:14:49.577Z,2.05
2023-04-11T08:17:27.121Z,1.15
2023-04-11T08:19:57.350Z,0.98
2023-04-11T08:22:26.590Z,1.88
2023-04-11T08:24:54.380Z,1.00
2023-04-11T08:27:22.200Z,1.10
2023-04-11T08:29:49.947Z,1.23
2023-04-11T08:32:17.643Z,1.45
2023-04-11T08:34:45.456Z,1.35
2023-04-11T08:37:13.453Z,1.23
2023-04-11T08:39:42.615Z,1.60
2023-04-11T08:42:22.733Z,1.77
2023-04-11T08:44:54.094Z,1.05
2023-04-11T08:47:22.011Z,1.08
2023-04-11T08:49:50.358Z,1.40
2023-04-11T08:52:19.265Z,1.23
2023-04-11T08:54:49.229Z,1.00
2023-04-11T08:57:25.949Z,1.60
2023-04-11T08:59:54.594Z,1.73
2023-04-11T09:02:22.513Z,1.00
2023-04-11T09:04:51.608Z,1.02
2023-04-11T09:07:20.376Z,1.10
2023-04-11T09:09:49.470Z,1.10
2023-04-11T09:12:22.464Z,1.77
2023-04-11T09:14:50.407Z,1.00
2023-04-11T09:17:18.237Z,1.45
2023-04-11T09:19:48.362Z,1.10
2023-04-11T09:22:17.159Z,1.23
2023-04-11T09:24:46.732Z,1.25
2023-04-11T09:27:19.543Z,1.00
2023-04-11T09:29:49.114Z,1.35
2023-04-11T09:32:31.070Z,1.75
2023-04-11T09:35:10.150Z,1.10
2023-04-11T09:37:46.752Z,1.73
2023-04-11T09:40:16.560Z,1.63
2023-04-11T09:42:46.684Z,1.00
2023-04-11T09:45:19.439Z,1.10
2023-04-11T09:47:48.125Z,1.58
2023-04-11T09:50:16.443Z,1.30
2023-04-11T09:52:45.303Z,1.10
2023-04-11T09:55:15.164Z,1.45
2023-04-11T09:57:45.996Z,0.88
2023-04-11T10:00:16.938Z,1.20
2023-04-11T10:02:46.507Z,1.30
2023-04-11T10:05:15.833Z,1.63
2023-04-11T10:07:48.088Z,1.13
2023-04-11T10:10:20.934Z,1.15
2023-04-11T10:12:50.806Z,2.08
2023-04-11T10:15:19.974Z,1.20
2023-04-11T10:18:10.210Z,1.07
2023-04-11T10:20:50.159Z,1.13
2023-04-11T10:23:18.226Z,1.00
2023-04-11T10:25:52.957Z,1.20
2023-04-11T10:28:39.208Z,1.42
2023-04-11T10:31:09.940Z,1.10
2023-04-11T10:33:38.710Z,1.50
2023-04-11T10:36:10.220Z,1.45
2023-04-11T10:38:51.230Z,1.73
2023-04-11T10:41:31.407Z,1.20
2023-04-11T10:44:20.959Z,1.40
2023-04-11T10:46:52.097Z,1.42
2023-04-11T10:49:38.053Z,1.30
2023-04-11T10:52:27.224Z,1.30
2023-04-11T10:54:55.513Z,1.10
2023-04-11T10:57:23.994Z,1.57
2023-04-11T11:00:12.956Z,1.63
2023-04-11T11:02:42.271Z,1.15
2023-04-11T11:05:21.859Z,1.48
2023-04-11T11:07:51.546Z,1.10
2023-04-11T11:10:42.106Z,1.27
2023-04-11T11:13:10.253Z,1.17
2023-04-11T11:15:39.810Z,1.42
2023-04-11T11:18:10.286Z,0.93
2023-04-11T11:20:38.558Z,1.20
2023-04-11T11:23:08.145Z,1.13
2023-04-11T11:25:36.282Z,1.40
2023-04-11T11:28:05.868Z,1.17
2023-04-11T11:30:33.992Z,1.27
2023-04-11T11:33:15.992Z,1.40
2023-04-11T11:35:45.929Z,1.97
2023-04-11T11:38:14.041Z,1.23
2023-04-11T11:40:41.920Z,1.30
2023-04-11T11:43:09.769Z,1.20
2023-04-11T11:45:37.555Z,1.17
2023-04-11T11:48:07.300Z,1.33
2023-04-11T11:50:35.261Z,1.13
2023-04-11T11:53:14.428Z,1.00
2023-04-11T11:55:43.228Z,1.08
2023-04-11T11:58:11.109Z,1.23
2023-04-11T12:00:40.936Z,1.30
2023-04-11T12:03:10.861Z,1.30
2023-04-11T12:05:39.200Z,1.17
2023-04-11T12:08:08.927Z,1.58
2023-04-11T12:10:40.986Z,1.58
2023-04-11T12:13:17.826Z,1.23
2023-04-11T12:15:49.408Z,1.30
2023-04-11T12:18:21.197Z,1.10
2023-04-11T12:20:49.823Z,1.17
2023-04-11T12:23:18.145Z,1.70
2023-04-11T12:25:47.225Z,1.23
2023-04-11T12:28:15.231Z,0.95
2023-04-11T12:30:43.143Z,1.58
2023-04-11T12:33:10.878Z,1.40
2023-04-11T12:35:40.225Z,1.20
2023-04-11T12:38:09.174Z,1.23
2023-04-11T12:40:37.913Z,1.17
2023-04-11T12:43:05.740Z,1.23
2023-04-11T12:45:33.803Z,1.58
2023-04-11T12:48:01.508Z,1.20
2023-04-11T12:50:29.289Z,1.10
2023-04-11T12:52:58.360Z,1.30
2023-04-11T12:55:26.178Z,1.23
2023-04-11T12:57:54.065Z,1.30
2023-04-11T13:00:22.156Z,1.50
2023-04-11T13:02:50.060Z,1.30
2023-04-11T13:05:18.160Z,1.60
2023-04-11T13:07:46.591Z,1.50
2023-04-11T13:10:16.811Z,1.38
2023-04-11T13:12:46.031Z,1.52
2023-04-11T13:15:15.326Z,1.50
2023-04-11T13:17:43.552Z,1.25
2023-04-11T13:20:12.882Z,1.02
2023-04-11T13:22:42.231Z,0.80
2023-04-11T13:25:10.850Z,1.00
2023-04-11T13:27:40.203Z,1.13
2023-04-11T13:30:09.930Z,1.00
2023-04-11T13:32:37.878Z,0.90
2023-04-11T13:35:06.222Z,1.70
2023-04-11T13:37:34.008Z,1.13
2023-04-11T13:40:01.796Z,1.30
2023-04-11T13:42:29.520Z,1.08
2023-04-11T13:44:58.624Z,1.00
2023-04-11T13:47:26.483Z,1.13
2023-04-11T13:49:54.226Z,1.70
2023-04-11T13:52:22.905Z,1.20
2023-04-11T13:54:50.939Z,1.10
2023-04-11T13:57:18.678Z,1.02
2023-04-11T13:59:46.430Z,1.92
2023-04-11T14:02:15.662Z,1.48
2023-04-11T14:04:43.887Z,1.33
2023-04-11T14:07:12.554Z,1.15
2023-04-11T14:09:40.533Z,1.40
2023-04-11T14:12:08.370Z,1.00
2023-04-11T14:14:36.138Z,2.10
2023-04-11T14:17:03.991Z,1.00
2023-04-11T14:19:33.197Z,1.25
2023-04-11T14:22:00.954Z,1.05
2023-04-11T14:24:29.627Z,1.10
2023-04-11T14:26:57.991Z,1.17
2023-04-11T14:29:26.332Z,1.27
2023-04-11T14:31:54.450Z,1.48
2023-04-11T14:34:22.533Z,1.30
2023-04-11T14:36:53.994Z,1.00
2023-04-11T14:39:22.534Z,1.27
2023-04-11T14:41:50.570Z,1.17
2023-04-11T14:44:22.333Z,1.10
2023-04-11T14:46:50.168Z,1.33
2023-04-11T14:49:18.144Z,1.27
2023-04-11T14:51:46.418Z,1.20
2023-04-11T14:54:15.719Z,0.97
2023-04-11T14:56:43.822Z,1.33
2023-04-11T14:59:11.725Z,1.40
2023-04-11T15:01:40.330Z,0.93
2023-04-11T15:04:08.455Z,1.10
2023-04-11T15:06:36.253Z,1.23
2023-04-11T15:09:04.705Z,1.13
2023-04-11T15:11:33.858Z,1.38
2023-04-11T15:14:01.577Z,1.20
2023-04-11T15:16:29.360Z,1.13
2023-04-11T15:18:57.588Z,1.30
2023-04-11T15:21:25.351Z,1.40
2023-04-11T15:23:53.164Z,1.38
2023-04-11T15:26:21.460Z,1.38
2023-04-11T15:28:51.154Z,1.10
2023-04-11T15:31:26.406Z,1.20
2023-04-11T15:33:57.182Z,1.08
2023-04-11T15:36:25.148Z,1.15
2023-04-11T15:38:53.047Z,1.30
2023-04-11T15:41:20.820Z,1.20
2023-04-11T15:43:49.942Z,0.80
2023-04-11T15:46:17.672Z,1.20
2023-04-11T15:48:45.614Z,1.25
2023-04-11T15:51:14.252Z,0.90
2023-04-11T15:53:42.013Z,1.20
2023-04-11T15:56:10.205Z,1.00
2023-04-11T15:58:37.983Z,0.90
2023-04-11T16:01:07.969Z,0.93
2023-04-11T16:03:36.019Z,1.10
2023-04-11T16:06:05.826Z,1.35
2023-04-11T16:08:33.587Z,1.10
2023-04-11T16:11:01.269Z,1.45
2023-04-11T16:13:29.010Z,1.10
2023-04-11T16:15:56.767Z,1.38
2023-04-11T16:18:25.986Z,0.95
2023-04-11T16:20:53.717Z,1.10
2023-04-11T16:23:21.548Z,1.00
2023-04-11T16:25:49.356Z,1.02
2023-04-11T16:28:17.235Z,0.80
2023-04-11T16:30:45.012Z,0.90
2023-04-11T16:33:12.665Z,0.90
2023-04-11T16:35:41.780Z,1.02
2023-04-11T16:38:09.643Z,1.08
2023-04-11T16:40:37.833Z,0.95
2023-04-11T16:43:05.569Z,1.40
2023-04-11T16:45:34.282Z,0.80
2023-04-11T16:48:03.372Z,1.33
2023-04-11T16:50:32.176Z,0.88
2023-04-11T16:53:01.292Z,1.10
2023-04-11T16:55:29.013Z,0.90
2023-04-11T16:57:56.785Z,1.03
2023-04-11T17:00:24.756Z,0.98
2023-04-11T17:02:52.594Z,0.95
2023-04-11T17:05:20.483Z,1.60
2023-04-11T17:07:48.222Z,1.00
2023-04-11T17:10:17.580Z,1.00
2023-04-11T17:12:45.341Z,1.08
2023-04-11T17:15:13.300Z,1.80
2023-04-11T17:17:41.161Z,1.00
2023-04-11T17:20:11.752Z,1.05
2023-04-11T17:22:43.041Z,1.10
2023-04-11T17:25:11.414Z,0.90
2023-04-11T17:27:41.712Z,1.52
2023-04-11T17:30:10.254Z,1.00
2023-04-11T17:32:38.368Z,0.88
2023-04-11T17:35:07.279Z,1.17
2023-04-11T17:37:35.825Z,0.90
2023-04-11T17:40:11.238Z,1.17
2023-04-11T17:42:41.034Z,1.10
2023-04-11T17:45:17.751Z,1.02
2023-04-11T17:47:46.545Z,0.90
2023-04-11T17:50:15.109Z,1.40
2023-04-11T17:52:43.972Z,0.90
2023-04-11T17:55:12.982Z,1.33
2023-04-11T17:57:42.534Z,1.15
2023-04-11T18:00:18.974Z,1.20
2023-04-11T18:02:49.071Z,0.93
2023-04-11T18:05:23.753Z,1.80
2023-04-11T18:07:54.853Z,1.30
2023-04-11T18:10:22.962Z,1.60
2023-04-11T18:12:52.945Z,1.47
2023-04-11T18:15:22.109Z,1.30
2023-04-11T18:17:49.993Z,1.30
2023-04-11T18:20:17.922Z,1.20
2023-04-11T18:22:50.176Z,2.03
2023-04-11T18:25:18.743Z,1.30
2023-04-11T18:27:47.049Z,1.63
2023-04-11T18:30:17.316Z,1.40
2023-04-11T18:32:49.422Z,0.98
2023-04-11T18:35:18.079Z,1.02
2023-04-11T18:37:45.809Z,1.40
2023-04-11T18:40:15.340Z,2.13
2023-04-11T18:42:45.743Z,2.05
2023-04-11T18:45:15.386Z,2.15
2023-04-11T18:47:46.139Z,1.48
2023-04-11T18:50:15.036Z,1.53
2023-04-11T18:52:44.825Z,1.50
2023-04-11T18:55:13.219Z,1.67
2023-04-11T18:57:41.852Z,1.52
2023-04-11T19:00:17.565Z,1.55
2023-04-11T19:02:54.301Z,1.50
2023-04-11T19:05:25.352Z,1.48
2023-04-11T19:07:53.726Z,1.60
2023-04-11T19:10:21.984Z,1.40
2023-04-11T19:12:49.760Z,1.33
2023-04-11T19:15:17.479Z,1.40
2023-04-11T19:17:45.656Z,1.77
2023-04-11T19:20:19.178Z,1.20
2023-04-11T19:22:49.918Z,1.00
2023-04-11T19:25:17.765Z,1.85
2023-04-11T19:27:46.345Z,1.33
2023-04-11T19:30:14.552Z,1.40
2023-04-11T19:32:45.573Z,1.08
2023-04-11T19:35:14.920Z,1.15
2023-04-11T19:37:42.895Z,1.25
2023-04-11T19:40:13.387Z,1.50
2023-04-11T19:42:41.668Z,1.70
2023-04-11T19:45:11.073Z,1.88
2023-04-11T19:47:40.153Z,1.70
2023-04-11T19:50:12.030Z,1.35
2023-04-11T19:52:41.898Z,1.40
2023-04-11T19:55:10.504Z,2.35
2023-04-11T19:57:40.155Z,1.60
2023-04-11T20:00:12.829Z,1.58
2023-04-11T20:02:44.528Z,1.50
2023-04-11T20:05:12.844Z,1.30
2023-04-11T20:07:42.429Z,2.00
2023-04-11T20:10:11.346Z,1.40
2023-04-11T20:12:39.070Z,1.45
2023-04-11T20:15:08.066Z,2.15
2023-04-11T20:17:36.520Z,2.07
2023-04-11T20:20:08.642Z,1.48
2023-04-11T20:22:38.304Z,1.65
2023-04-11T20:25:11.340Z,1.55
2023-04-11T20:27:39.576Z,1.67
2023-04-11T20:30:10.466Z,1.40
2023-04-11T20:32:38.840Z,1.40
2023-04-11T20:35:08.652Z,2.10
2023-04-11T20:37:36.813Z,1.75
2023-04-11T20:40:07.605Z,1.50
2023-04-11T20:42:39.913Z,1.97
2023-04-11T20:45:10.274Z,2.05
2023-04-11T20:47:38.387Z,1.77
2023-04-11T20:50:07.583Z,1.80
2023-04-11T20:52:35.870Z,1.15
2023-04-11T20:55:04.176Z,1.33
2023-04-11T20:57:33.573Z,1.52
2023-04-11T21:00:07.538Z,1.27
2023-04-11T21:02:35.658Z,1.15
2023-04-11T21:05:03.579Z,1.40
2023-04-11T21:07:31.365Z,1.20
2023-04-11T21:09:59.158Z,1.10
2023-04-11T21:12:26.977Z,1.02
2023-04-11T21:14:54.721Z,1.23
2023-04-11T21:17:23.868Z,1.45
2023-04-11T21:19:51.684Z,1.40
2023-04-11T21:22:19.472Z,1.35
2023-04-11T21:24:47.333Z,1.35
2023-04-11T21:27:15.160Z,1.25
2023-04-11T21:29:42.993Z,1.45
2023-04-11T21:32:10.752Z,1.10
2023-04-11T21:34:39.968Z,1.35
2023-04-11T21:37:07.904Z,1.35
2023-04-11T21:39:35.674Z,1.15
2023-04-11T21:42:03.440Z,1.55
2023-04-11T21:44:31.185Z,1.60
2023-04-11T21:46:59.278Z,1.48
2023-04-11T21:49:27.167Z,1.50
2023-04-11T21:51:57.100Z,1.55
2023-04-11T21:54:24.932Z,1.60
2023-04-11T21:56:52.924Z,1.90
2023-04-11T21:59:21.068Z,1.67
2023-04-11T22:01:48.997Z,2.08
2023-04-11T22:04:18.069Z,2.42
2023-04-11T22:06:46.900Z,1.42
2023-04-11T22:09:17.988Z,1.80
2023-04-11T22:11:45.869Z,1.48
2023-04-11T22:14:16.260Z,1.50
2023-04-11T22:16:48.796Z,1.88
2023-04-11T22:19:17.920Z,2.22
2023-04-11T22:21:48.539Z,1.90
2023-04-11T22:24:17.736Z,2.15
2023-04-11T22:26:49.057Z,1.52
2023-04-11T22:29:18.334Z,2.10
2023-04-11T22:31:47.650Z,1.92
2023-04-11T22:34:15.877Z,2.07
2023-04-11T22:36:43.639Z,2.08
2023-04-11T22:39:11.550Z,2.00
2023-04-11T22:41:40.789Z,1.88
2023-04-11T22:44:08.602Z,1.95
2023-04-11T22:46:38.650Z,2.30
2023-04-11T22:49:06.708Z,2.20
2023-04-11T22:51:34.431Z,2.70
2023-04-11T22:54:02.296Z,2.55
2023-04-11T22:56:30.041Z,2.63
2023-04-11T22:58:59.162Z,3.07
2023-04-11T23:01:28.090Z,2.60
2023-04-11T23:03:56.138Z,2.60
2023-04-11T23:06:24.133Z,2.60
2023-04-11T23:08:54.033Z,3.17
2023-04-11T23:11:22.156Z,2.53
2023-04-11T23:13:49.953Z,3.22
2023-04-11T23:16:19.406Z,2.58
2023-04-11T23:18:47.229Z,2.40
2023-04-11T23:21:15.429Z,2.47
2023-04-11T23:23:43.168Z,2.50
2023-04-11T23:26:18.323Z,2.38
2023-04-11T23:28:47.268Z,2.45
2023-04-11T23:31:15.464Z,2.58
2023-04-11T23:33:44.833Z,2.90
2023-04-11T23:36:13.542Z,2.50
2023-04-11T23:38:41.960Z,2.70
2023-04-11T23:41:09.680Z,2.72
2023-04-11T23:43:37.442Z,3.05
2023-04-11T23:46:05.737Z,3.65
2023-04-11T23:48:33.659Z,3.90
2023-04-11T23:51:03.656Z,4.38
2023-04-11T23:53:31.637Z,4.30
2023-04-11T23:55:59.531Z,3.90
2023-04-11T23:58:27.379Z,3.90
